createdAt,value
2023-02-09T00:02:56.866Z,5.45
2023-02-09T00:06:03.616Z,5.90
2023-02-09T00:09:08.679Z,6.50
2023-02-09T00:12:33.022Z,5.68
2023-02-09T00:15:38.177Z,5.63
2023-02-09T00:18:43.666Z,7.07
2023-02-09T00:21:49.296Z,6.35
2023-02-09T00:24:57.248Z,6.43
2023-02-09T00:28:02.718Z,5.28
2023-02-09T00:31:11.809Z,5.25
2023-02-09T00:34:19.804Z,5.60
2023-02-09T00:37:26.864Z,6.28
2023-02-09T00:40:31.914Z,5.05
2023-02-09T00:43:37.474Z,5.85
2023-02-09T00:46:42.429Z,5.03
2023-02-09T00:49:47.708Z,5.07
2023-02-09T00:52:52.782Z,5.93
2023-02-09T00:55:57.857Z,5.47
2023-02-09T00:59:03.469Z,5.63
2023-02-09T01:02:08.578Z,5.55
2023-02-09T01:05:13.786Z,5.13
2023-02-09T01:08:19.068Z,6.65
2023-02-09T01:11:28.377Z,6.00
2023-02-09T01:14:33.270Z,5.88
2023-02-09T01:17:38.768Z,5.75
2023-02-09T01:20:44.210Z,5.68
2023-02-09T01:23:50.711Z,5.80
2023-02-09T01:26:57.262Z,6.05
2023-02-09T01:30:02.373Z,5.55
2023-02-09T01:33:07.428Z,5.70
2023-02-09T01:36:12.470Z,5.75
2023-02-09T01:39:17.784Z,5.53
2023-02-09T01:42:23.312Z,7.75
2023-02-09T01:45:56.664Z,6.15
2023-02-09T01:49:22.383Z,5.53
2023-02-09T01:52:30.468Z,4.97
2023-02-09T01:55:47.391Z,4.80
2023-02-09T01:58:53.021Z,5.63
2023-02-09T02:01:58.207Z,5.30
2023-02-09T02:05:05.519Z,6.32
2023-02-09T02:08:34.873Z,5.72
2023-02-09T02:11:43.107Z,6.25
2023-02-09T02:14:48.905Z,6.22
2023-02-09T02:18:09.237Z,6.22
2023-02-09T02:21:40.460Z,5.75
2023-02-09T02:24:48.848Z,4.88
2023-02-09T02:28:26.346Z,6.03
2023-02-09T02:31:59.461Z,6.50
2023-02-09T02:35:30.688Z,6.05
2023-02-09T02:38:57.562Z,4.95
2023-02-09T02:42:36.776Z,5.72
2023-02-09T02:46:10.079Z,5.00
2023-02-09T02:49:18.550Z,4.55
2023-02-09T02:52:23.840Z,5.38
2023-02-09T02:55:32.659Z,5.43
2023-02-09T02:58:41.725Z,5.60
2023-02-09T03:01:53.964Z,5.53
2023-02-09T03:05:01.389Z,5.53
2023-02-09T03:08:06.577Z,6.30
2023-02-09T03:11:12.074Z,4.70
2023-02-09T03:14:36.120Z,5.22
2023-02-09T03:17:55.641Z,5.45
2023-02-09T03:21:11.708Z,5.93
2023-02-09T03:24:24.780Z,5.32
2023-02-09T03:27:42.119Z,5.43
2023-02-09T03:30:50.533Z,5.65
2023-02-09T03:34:00.239Z,5.40
2023-02-09T03:37:05.557Z,5.15
2023-02-09T03:40:11.474Z,4.93
2023-02-09T03:43:17.053Z,5.78
2023-02-09T03:46:22.429Z,5.32
2023-02-09T03:49:32.275Z,5.15
2023-02-09T03:52:37.574Z,5.25
2023-02-09T03:55:42.933Z,5.38
2023-02-09T03:58:48.904Z,6.00
2023-02-09T04:01:55.904Z,5.95
2023-02-09T04:05:01.494Z,4.68
2023-02-09T04:08:06.706Z,5.30
2023-02-09T04:11:11.876Z,4.43
2023-02-09T04:14:17.252Z,4.20
2023-02-09T04:17:22.620Z,5.28
2023-02-09T04:20:27.889Z,5.45
2023-02-09T04:23:33.316Z,5.03
2023-02-09T04:26:39.201Z,5.15
2023-02-09T04:29:44.653Z,4.75
2023-02-09T04:32:50.191Z,4.35
2023-02-09T04:35:55.484Z,5.07
2023-02-09T04:39:00.818Z,4.38
2023-02-09T04:42:05.984Z,3.85
2023-02-09T04:45:11.582Z,4.55
2023-02-09T04:48:19.722Z,4.80
2023-02-09T04:51:25.304Z,4.65
2023-02-09T04:54:30.928Z,4.95
2023-02-09T04:57:55.020Z,5.53
2023-02-09T05:01:00.992Z,5.90
2023-02-09T05:04:06.199Z,5.50
2023-02-09T05:07:11.867Z,4.72
2023-02-09T05:10:17.796Z,5.57
2023-02-09T05:13:24.900Z,4.82
2023-02-09T05:16:30.209Z,5.32
2023-02-09T05:19:35.144Z,5.00
2023-02-09T05:22:40.362Z,4.97
2023-02-09T05:25:46.236Z,6.43
2023-02-09T05:28:51.312Z,5.15
2023-02-09T05:31:56.974Z,5.63
2023-02-09T05:35:02.325Z,5.53
2023-02-09T05:38:07.802Z,5.40
2023-02-09T05:41:33.072Z,5.47
2023-02-09T05:44:38.202Z,5.38
2023-02-09T05:47:43.386Z,4.97
2023-02-09T05:50:48.635Z,6.05
2023-02-09T05:53:54.596Z,5.25
2023-02-09T05:57:00.167Z,5.53
2023-02-09T06:00:06.822Z,5.75
2023-02-09T06:03:17.741Z,5.43
2023-02-09T06:06:23.238Z,5.72
2023-02-09T06:09:28.901Z,5.45
2023-02-09T06:12:34.362Z,6.10
2023-02-09T06:15:39.993Z,5.82
2023-02-09T06:18:45.563Z,4.88
2023-02-09T06:21:50.854Z,6.50
2023-02-09T06:24:55.988Z,5.32
2023-02-09T06:28:02.132Z,5.95
2023-02-09T06:31:08.632Z,5.80
2023-02-09T06:34:14.047Z,6.38
2023-02-09T06:37:19.126Z,6.93
2023-02-09T06:40:24.425Z,6.07
2023-02-09T06:43:29.746Z,7.13
2023-02-09T06:46:35.653Z,6.05
2023-02-09T06:49:41.268Z,7.47
2023-02-09T06:52:47.103Z,6.63
2023-02-09T06:55:52.369Z,9.20
2023-02-09T06:58:57.734Z,7.88
2023-02-09T07:02:03.253Z,6.88
2023-02-09T07:05:08.708Z,7.47
2023-02-09T07:08:14.274Z,6.70
2023-02-09T07:11:20.299Z,6.97
2023-02-09T07:14:25.863Z,6.47
2023-02-09T07:17:31.821Z,7.47
2023-02-09T07:20:37.126Z,6.32
2023-02-09T07:23:42.423Z,6.32
2023-02-09T07:26:47.854Z,7.55
2023-02-09T07:29:53.377Z,6.65
2023-02-09T07:32:58.869Z,7.15
2023-02-09T07:36:06.467Z,6.80
2023-02-09T07:39:11.906Z,6.82
2023-02-09T07:42:17.649Z,5.80
2023-02-09T07:45:49.610Z,6.23
2023-02-09T07:48:55.006Z,5.53
2023-02-09T07:52:00.619Z,6.50
2023-02-09T07:55:06.546Z,5.65
2023-02-09T07:58:11.978Z,6.50
2023-02-09T08:01:18.116Z,6.63
2023-02-09T08:04:24.568Z,5.70
2023-02-09T08:07:30.390Z,6.05
2023-02-09T08:10:36.120Z,6.57
2023-02-09T08:13:41.939Z,6.15
2023-02-09T08:16:49.385Z,6.07
2023-02-09T08:20:09.870Z,7.30
2023-02-09T08:23:26.083Z,6.75
2023-02-09T08:26:31.650Z,7.47
2023-02-09T08:29:37.017Z,7.90
2023-02-09T08:32:42.861Z,7.45
2023-02-09T08:35:52.706Z,7.13
2023-02-09T08:38:58.218Z,8.00
2023-02-09T08:42:03.835Z,7.47
2023-02-09T08:45:10.151Z,7.68
2023-02-09T08:48:15.927Z,7.05
2023-02-09T08:51:21.804Z,8.10
2023-02-09T08:54:27.712Z,7.50
2023-02-09T08:57:43.594Z,7.30
2023-02-09T09:00:50.471Z,7.82
2023-02-09T09:03:56.413Z,7.85
2023-02-09T09:07:01.909Z,8.05
2023-02-09T09:10:11.526Z,9.35
2023-02-09T09:13:17.518Z,8.68
2023-02-09T09:16:23.896Z,9.20
2023-02-09T09:19:29.947Z,10.23
2023-02-09T09:22:35.194Z,9.32
2023-02-09T09:25:41.517Z,10.55
2023-02-09T09:28:53.967Z,9.77
2023-02-09T09:31:59.249Z,9.30
2023-02-09T09:35:04.991Z,8.40
2023-02-09T09:38:10.296Z,8.45
2023-02-09T09:41:23.301Z,8.82
2023-02-09T09:44:37.327Z,8.60
2023-02-09T09:47:44.946Z,10.63
2023-02-09T09:50:54.587Z,8.98
2023-02-09T09:54:02.460Z,9.10
2023-02-09T09:57:21.931Z,8.73
2023-02-09T10:00:39.864Z,8.82
2023-02-09T10:03:45.649Z,9.10
2023-02-09T10:07:02.172Z,9.38
2023-02-09T10:10:24.172Z,8.00
2023-02-09T10:13:54.026Z,8.70
2023-02-09T10:16:59.224Z,8.75
2023-02-09T10:20:08.349Z,7.50
2023-02-09T10:23:25.346Z,7.68
2023-02-09T10:26:40.069Z,8.20
2023-02-09T10:29:45.655Z,8.25
2023-02-09T10:32:51.218Z,8.45
2023-02-09T10:36:07.059Z,8.68
2023-02-09T10:39:12.671Z,7.75
2023-02-09T10:42:31.841Z,8.73
2023-02-09T10:45:42.353Z,8.50
2023-02-09T10:48:48.363Z,8.20
2023-02-09T10:52:21.796Z,8.68
2023-02-09T10:55:39.369Z,8.27
2023-02-09T10:59:01.430Z,8.23
2023-02-09T11:02:29.952Z,9.30
2023-02-09T11:05:35.962Z,7.30
2023-02-09T11:08:53.115Z,8.02
2023-02-09T11:11:58.497Z,7.47
2023-02-09T11:15:04.176Z,7.25
2023-02-09T11:18:17.568Z,7.32
2023-02-09T11:21:38.279Z,7.63
2023-02-09T11:24:49.076Z,7.00
2023-02-09T11:28:15.337Z,6.20
2023-02-09T11:32:02.006Z,6.68
2023-02-09T11:35:16.651Z,5.57
2023-02-09T11:38:50.627Z,6.55
2023-02-09T11:42:20.801Z,6.20
2023-02-09T11:45:47.075Z,5.82
2023-02-09T11:49:10.954Z,6.70
2023-02-09T11:52:38.694Z,5.65
2023-02-09T11:55:49.349Z,5.80
2023-02-09T11:58:57.314Z,6.10
2023-02-09T12:02:10.135Z,6.95
2023-02-09T12:05:19.899Z,6.25
2023-02-09T12:08:24.871Z,6.10
2023-02-09T12:11:42.436Z,6.38
2023-02-09T12:14:59.955Z,6.68
2023-02-09T12:18:19.483Z,6.13
2023-02-09T12:21:33.684Z,5.38
2023-02-09T12:24:40.839Z,6.03
2023-02-09T12:28:17.134Z,5.93
2023-02-09T12:31:28.225Z,6.63
2023-02-09T12:34:53.137Z,6.85
2023-02-09T12:38:19.713Z,6.85
2023-02-09T12:41:28.943Z,6.45
2023-02-09T12:44:37.982Z,6.05
2023-02-09T12:47:45.657Z,6.05
2023-02-09T12:50:54.266Z,7.28
2023-02-09T12:53:59.440Z,7.03
2023-02-09T12:57:17.153Z,6.85
2023-02-09T13:00:31.474Z,6.47
2023-02-09T13:03:45.605Z,7.43
2023-02-09T13:06:56.954Z,6.70
2023-02-09T13:10:21.843Z,6.75
2023-02-09T13:13:44.386Z,6.20
2023-02-09T13:17:07.175Z,5.85
2023-02-09T13:20:22.633Z,5.00
2023-02-09T13:23:42.420Z,5.53
2023-02-09T13:26:53.953Z,5.70
2023-02-09T13:29:59.800Z,7.00
2023-02-09T13:33:23.138Z,7.15
2023-02-09T13:37:06.018Z,6.70
2023-02-09T13:40:22.275Z,6.32
2023-02-09T13:43:35.171Z,6.13
2023-02-09T13:46:41.711Z,6.82
2023-02-09T13:49:57.745Z,6.32
2023-02-09T13:53:11.180Z,6.05
2023-02-09T13:56:16.732Z,6.78
2023-02-09T13:59:22.847Z,6.32
2023-02-09T14:02:29.133Z,6.50
2023-02-09T14:05:49.257Z,6.45
2023-02-09T14:08:55.456Z,6.90
2023-02-09T14:12:07.238Z,6.78
2023-02-09T14:15:33.666Z,5.85
2023-02-09T14:18:55.312Z,8.00
2023-02-09T14:22:00.566Z,6.55
2023-02-09T14:25:15.551Z,7.05
2023-02-09T14:28:21.392Z,6.70
2023-02-09T14:31:26.779Z,6.65
2023-02-09T14:34:39.698Z,7.60
2023-02-09T14:37:45.584Z,7.05
2023-02-09T14:40:51.305Z,6.30
2023-02-09T14:44:07.349Z,6.75
2023-02-09T14:47:35.877Z,7.15
2023-02-09T14:50:41.600Z,7.03
2023-02-09T14:53:47.196Z,6.72
2023-02-09T14:56:56.854Z,8.20
2023-02-09T15:00:25.721Z,6.95
2023-02-09T15:03:31.580Z,6.70
2023-02-09T15:06:38.526Z,7.40
2023-02-09T15:09:44.148Z,7.38
2023-02-09T15:12:49.775Z,7.63
2023-02-09T15:15:55.121Z,6.75
2023-02-09T15:19:00.446Z,7.65
2023-02-09T15:22:08.997Z,7.50
2023-02-09T15:25:15.030Z,7.22
2023-02-09T15:28:31.409Z,8.55
2023-02-09T15:31:36.894Z,9.13
2023-02-09T15:34:43.040Z,8.25
2023-02-09T15:38:10.646Z,7.88
2023-02-09T15:41:36.090Z,7.32
2023-02-09T15:44:59.740Z,6.30
2023-02-09T15:48:05.566Z,6.70
2023-02-09T15:51:11.294Z,8.50
2023-02-09T15:54:25.071Z,6.40
2023-02-09T15:57:30.311Z,7.95
2023-02-09T16:00:35.693Z,9.55
2023-02-09T16:03:41.534Z,8.00
2023-02-09T16:06:53.112Z,10.00
2023-02-09T16:09:58.488Z,8.00
2023-02-09T16:13:06.596Z,8.80
2023-02-09T16:16:17.268Z,8.27
2023-02-09T16:19:23.021Z,8.52
2023-02-09T16:22:28.419Z,8.40
2023-02-09T16:25:34.493Z,9.60
2023-02-09T16:28:39.719Z,8.85
2023-02-09T16:31:44.924Z,8.88
2023-02-09T16:34:51.059Z,9.30
2023-02-09T16:37:59.159Z,8.55
2023-02-09T16:41:04.372Z,9.48
2023-02-09T16:44:33.688Z,9.43
2023-02-09T16:47:45.941Z,8.98
2023-02-09T16:50:54.310Z,10.45
2023-02-09T16:54:00.060Z,9.52
2023-02-09T16:57:06.009Z,9.82
2023-02-09T17:00:12.244Z,11.23
2023-02-09T17:03:23.866Z,12.02
2023-02-09T17:06:30.291Z,12.85
2023-02-09T17:09:35.609Z,9.93
2023-02-09T17:12:40.585Z,11.50
2023-02-09T17:15:48.850Z,10.65
2023-02-09T17:18:58.248Z,11.70
2023-02-09T17:22:11.264Z,10.70
2023-02-09T17:25:22.762Z,10.50
2023-02-09T17:28:29.136Z,10.37
2023-02-09T17:31:50.823Z,11.60
2023-02-09T17:34:58.077Z,12.63
2023-02-09T17:38:03.400Z,14.40
2023-02-09T17:41:16.268Z,10.38
2023-02-09T17:44:45.098Z,11.43
2023-02-09T17:47:57.489Z,10.60
2023-02-09T17:51:04.892Z,11.18
2023-02-09T17:54:21.092Z,10.25
2023-02-09T17:57:27.929Z,10.65
2023-02-09T18:00:33.423Z,9.80
2023-02-09T18:03:38.918Z,10.60
2023-02-09T18:06:44.439Z,11.27
2023-02-09T18:09:50.217Z,11.25
2023-02-09T18:12:57.276Z,9.75
2023-02-09T18:16:03.426Z,10.95
2023-02-09T18:19:10.077Z,11.07
2023-02-09T18:22:17.399Z,10.35
2023-02-09T18:25:27.887Z,11.93
2023-02-09T18:28:33.308Z,10.88
2023-02-09T18:31:38.450Z,13.13
2023-02-09T18:34:44.071Z,11.77
2023-02-09T18:37:50.004Z,11.07
2023-02-09T18:40:55.630Z,11.75
2023-02-09T18:44:01.502Z,11.65
2023-02-09T18:47:07.160Z,12.43
2023-02-09T18:50:20.732Z,11.65
2023-02-09T18:53:26.007Z,11.50
2023-02-09T18:56:32.047Z,12.68
2023-02-09T18:59:37.357Z,12.32
2023-02-09T19:02:44.637Z,12.05
2023-02-09T19:05:50.554Z,11.88
2023-02-09T19:08:55.677Z,11.80
2023-02-09T19:12:01.469Z,11.60
2023-02-09T19:15:07.602Z,11.95
2023-02-09T19:18:13.173Z,11.68
2023-02-09T19:21:20.521Z,12.38
2023-02-09T19:24:28.382Z,13.45
2023-02-09T19:27:33.967Z,12.43
2023-02-09T19:30:41.352Z,13.45
2023-02-09T19:33:46.747Z,13.18
2023-02-09T19:36:52.091Z,13.65
2023-02-09T19:40:04.933Z,12.65
2023-02-09T19:43:12.404Z,13.73
2023-02-09T19:46:17.987Z,12.85
2023-02-09T19:49:23.952Z,13.80
2023-02-09T19:52:28.985Z,14.48
2023-02-09T19:55:34.692Z,14.30
2023-02-09T19:58:39.953Z,13.73
2023-02-09T20:01:45.323Z,13.75
2023-02-09T20:04:51.130Z,14.65
2023-02-09T20:07:57.443Z,14.20
2023-02-09T20:11:11.845Z,14.45
2023-02-09T20:14:17.540Z,14.15
2023-02-09T20:17:22.835Z,13.40
2023-02-09T20:20:28.267Z,13.68
2023-02-09T20:23:34.299Z,13.57
2023-02-09T20:26:39.908Z,14.65
2023-02-09T20:29:45.565Z,15.15
2023-02-09T20:32:50.611Z,13.63
2023-02-09T20:35:55.729Z,13.77
2023-02-09T20:39:00.919Z,14.93
2023-02-09T20:42:24.961Z,14.15
2023-02-09T20:45:48.994Z,14.07
2023-02-09T20:48:54.150Z,14.95
2023-02-09T20:51:59.495Z,15.00
2023-02-09T20:55:05.836Z,14.93
2023-02-09T20:58:13.917Z,15.52
2023-02-09T21:01:20.950Z,19.02
2023-02-09T21:04:30.639Z,21.50
2023-02-09T21:07:36.190Z,21.27
2023-02-09T21:10:41.647Z,18.42
2023-02-09T21:13:47.375Z,19.30
2023-02-09T21:16:56.426Z,17.60
2023-02-09T21:20:03.031Z,18.23
2023-02-09T21:23:08.182Z,18.67
2023-02-09T21:26:16.777Z,17.27
2023-02-09T21:29:22.050Z,20.00
2023-02-09T21:32:27.530Z,19.23
2023-02-09T21:35:32.930Z,18.60
2023-02-09T21:38:41.853Z,16.30
2023-02-09T21:42:06.395Z,16.52
2023-02-09T21:45:11.611Z,19.25
2023-02-09T21:48:17.205Z,17.65
2023-02-09T21:51:23.289Z,18.85
2023-02-09T21:54:33.619Z,18.42
2023-02-09T21:57:39.302Z,20.17
2023-02-09T22:00:45.265Z,17.80
2023-02-09T22:03:57.490Z,19.75
2023-02-09T22:07:02.853Z,17.95
2023-02-09T22:10:08.670Z,17.92
2023-02-09T22:13:13.915Z,18.52
2023-02-09T22:16:24.311Z,17.40
2023-02-09T22:19:29.759Z,17.88
2023-02-09T22:22:35.032Z,16.15
2023-02-09T22:25:40.623Z,17.25
2023-02-09T22:28:47.087Z,19.05
2023-02-09T22:31:52.733Z,19.60
2023-02-09T22:34:58.127Z,18.85
2023-02-09T22:38:03.673Z,18.75
2023-02-09T22:41:24.393Z,17.70
2023-02-09T22:44:30.657Z,17.70
2023-02-09T22:47:36.482Z,20.02
2023-02-09T22:50:42.160Z,19.20
2023-02-09T22:53:48.565Z,17.92
2023-02-09T22:56:53.882Z,16.90
2023-02-09T22:59:59.833Z,17.35
2023-02-09T23:03:05.175Z,19.27
2023-02-09T23:06:14.988Z,18.60
2023-02-09T23:09:20.141Z,18.77
2023-02-09T23:12:25.824Z,16.67
2023-02-09T23:15:31.563Z,18.05
2023-02-09T23:18:37.045Z,18.33
2023-02-09T23:21:46.294Z,17.38
2023-02-09T23:24:51.440Z,17.63
2023-02-09T23:27:57.202Z,18.50
2023-02-09T23:31:12.210Z,18.08
2023-02-09T23:34:23.232Z,18.02
2023-02-09T23:37:37.531Z,17.48
2023-02-09T23:40:43.395Z,19.10
2023-02-09T23:43:49.607Z,17.55
2023-02-09T23:46:55.829Z,17.88
2023-02-09T23:50:00.999Z,18.48
2023-02-09T23:53:06.430Z,19.48
2023-02-09T23:56:15.394Z,18.23
2023-02-09T23:59:20.741Z,19.08
